createdAt,value
2023-03-27T00:00:05.489Z,1.40
2023-03-27T00:01:05.500Z,1.40
2023-03-27T00:02:05.520Z,1.40
2023-03-27T00:03:05.523Z,2.20
2023-03-27T00:04:05.480Z,1.80
2023-03-27T00:05:05.422Z,2.00
2023-03-27T00:06:05.407Z,1.80
2023-03-27T00:07:05.407Z,1.90
2023-03-27T00:08:05.382Z,2.90
2023-03-27T00:09:05.359Z,2.80
2023-03-27T00:10:05.321Z,2.00
2023-03-27T00:11:05.351Z,2.00
2023-03-27T00:12:05.299Z,1.60
2023-03-27T00:13:05.301Z,2.80
2023-03-27T00:14:05.293Z,1.90
2023-03-27T00:15:05.258Z,2.60
2023-03-27T00:16:05.288Z,2.20
2023-03-27T00:17:05.350Z,2.60
2023-03-27T00:18:05.277Z,2.00
2023-03-27T00:19:05.263Z,2.10
2023-03-27T00:20:05.193Z,2.00
2023-03-27T00:21:05.227Z,2.00
2023-03-27T00:22:05.178Z,3.30
2023-03-27T00:23:05.205Z,1.50
2023-03-27T00:24:05.166Z,1.40
2023-03-27T00:25:05.205Z,2.00
2023-03-27T00:26:05.140Z,1.50
2023-03-27T00:27:05.118Z,2.00
2023-03-27T00:28:05.145Z,1.90
2023-03-27T00:29:05.107Z,2.40
2023-03-27T00:30:05.091Z,1.40
2023-03-27T00:31:05.118Z,1.80
2023-03-27T00:32:05.055Z,2.20
2023-03-27T00:33:05.122Z,2.80
2023-03-27T00:34:05.033Z,3.50
2023-03-27T00:35:05.077Z,2.60
2023-03-27T00:36:05.083Z,1.60
2023-03-27T00:37:05.008Z,1.60
2023-03-27T00:38:04.974Z,2.30
2023-03-27T00:39:04.976Z,1.70
2023-03-27T00:40:04.986Z,1.70
2023-03-27T00:41:05.096Z,1.50
2023-03-27T00:42:04.938Z,1.90
2023-03-27T00:43:04.909Z,1.60
2023-03-27T00:44:04.906Z,1.40
2023-03-27T00:45:04.907Z,1.70
2023-03-27T00:46:04.899Z,2.40
2023-03-27T00:47:04.887Z,2.40
2023-03-27T00:48:04.868Z,1.70
2023-03-27T00:49:04.873Z,1.40
2023-03-27T00:50:04.853Z,2.20
2023-03-27T00:51:04.838Z,2.00
2023-03-27T00:52:04.847Z,2.00
2023-03-27T00:53:04.777Z,1.60
2023-03-27T00:54:04.790Z,2.00
2023-03-27T00:55:04.788Z,1.40
2023-03-27T00:56:04.851Z,2.20
2023-03-27T00:57:04.805Z,2.70
2023-03-27T00:58:04.711Z,2.90
2023-03-27T00:59:04.732Z,2.40
2023-03-27T01:00:04.702Z,2.20
2023-03-27T01:01:04.742Z,2.00
2023-03-27T01:02:04.680Z,1.50
2023-03-27T01:03:04.845Z,2.20
2023-03-27T01:04:04.641Z,1.80
2023-03-27T01:05:04.635Z,1.60
2023-03-27T01:06:04.616Z,2.30
2023-03-27T01:07:04.622Z,2.20
2023-03-27T01:08:04.582Z,1.40
2023-03-27T01:09:04.584Z,2.10
2023-03-27T01:10:04.590Z,1.50
2023-03-27T01:11:04.579Z,1.40
2023-03-27T01:12:04.565Z,1.20
2023-03-27T01:13:04.537Z,1.70
2023-03-27T01:14:04.529Z,1.60
2023-03-27T01:15:04.538Z,1.50
2023-03-27T01:16:04.563Z,2.50
2023-03-27T01:17:04.467Z,1.40
2023-03-27T01:18:04.587Z,1.50
2023-03-27T01:19:04.449Z,1.40
2023-03-27T01:20:04.468Z,1.40
2023-03-27T01:21:04.430Z,1.80
2023-03-27T01:22:04.416Z,1.50
2023-03-27T01:23:04.403Z,1.60
2023-03-27T01:24:04.371Z,1.80
2023-03-27T01:25:04.362Z,2.20
2023-03-27T01:26:04.399Z,2.30
2023-03-27T01:27:04.392Z,1.40
2023-03-27T01:28:04.325Z,1.50
2023-03-27T01:29:04.386Z,1.90
2023-03-27T01:30:04.355Z,1.40
2023-03-27T01:31:04.364Z,0.90
2023-03-27T01:32:04.277Z,1.40
2023-03-27T01:33:04.330Z,1.30
2023-03-27T01:34:04.254Z,1.00
2023-03-27T01:35:04.234Z,1.30
2023-03-27T01:36:04.321Z,0.90
2023-03-27T01:37:04.204Z,1.00
2023-03-27T01:38:04.203Z,1.00
2023-03-27T01:39:04.271Z,1.30
2023-03-27T01:40:04.240Z,1.40
2023-03-27T01:41:04.208Z,1.10
2023-03-27T01:42:04.194Z,1.00
2023-03-27T01:43:04.137Z,0.80
2023-03-27T01:44:04.110Z,0.90
2023-03-27T01:45:04.151Z,1.20
2023-03-27T01:46:04.099Z,0.90
2023-03-27T01:47:04.330Z,1.20
2023-03-27T01:48:04.120Z,0.80
2023-03-27T01:49:04.069Z,0.90
2023-03-27T01:50:04.043Z,0.80
2023-03-27T01:51:04.034Z,1.10
2023-03-27T01:52:04.053Z,1.10
2023-03-27T01:53:03.999Z,1.20
2023-03-27T01:54:04.009Z,0.90
2023-03-27T01:55:04.071Z,0.70
2023-03-27T01:56:03.968Z,0.60
2023-03-27T01:57:04.097Z,0.60
2023-03-27T01:58:03.962Z,1.10
2023-03-27T01:59:04.042Z,0.90
2023-03-27T02:00:17.447Z,0.50
2023-03-27T02:01:05.189Z,0.50
2023-03-27T02:02:03.899Z,0.60
2023-03-27T02:03:03.905Z,0.80
2023-03-27T02:04:03.878Z,1.00
2023-03-27T02:05:03.923Z,0.30
2023-03-27T02:06:03.855Z,0.40
2023-03-27T02:07:03.859Z,0.40
2023-03-27T02:08:03.811Z,0.60
2023-03-27T02:09:03.803Z,0.40
2023-03-27T02:10:03.798Z,0.60
2023-03-27T02:11:03.784Z,0.60
2023-03-27T02:12:03.790Z,0.60
2023-03-27T02:13:03.751Z,1.30
2023-03-27T02:14:03.723Z,0.50
2023-03-27T02:15:23.100Z,0.60
2023-03-27T02:16:04.806Z,0.80
2023-03-27T02:17:03.694Z,0.50
2023-03-27T02:18:03.730Z,0.60
2023-03-27T02:19:03.662Z,0.70
2023-03-27T02:20:03.660Z,1.40
2023-03-27T02:21:03.658Z,0.40
2023-03-27T02:22:03.702Z,0.60
2023-03-27T02:23:03.655Z,0.70
2023-03-27T02:24:03.638Z,0.60
2023-03-27T02:25:03.593Z,0.70
2023-03-27T02:26:03.599Z,0.40
2023-03-27T02:27:03.683Z,0.60
2023-03-27T02:28:03.562Z,0.50
2023-03-27T02:29:03.540Z,0.50
2023-03-27T02:30:03.529Z,0.50
2023-03-27T02:31:06.335Z,0.50
2023-03-27T02:32:04.580Z,0.60
2023-03-27T02:33:03.533Z,0.60
2023-03-27T02:34:03.500Z,0.50
2023-03-27T02:35:03.480Z,0.60
2023-03-27T02:36:03.556Z,0.70
2023-03-27T02:37:03.459Z,0.90
2023-03-27T02:38:03.416Z,0.80
2023-03-27T02:39:03.482Z,0.50
2023-03-27T02:40:03.387Z,2.90
2023-03-27T02:41:03.397Z,0.50
2023-03-27T02:42:03.401Z,1.40
2023-03-27T02:43:03.349Z,0.70
2023-03-27T02:44:03.368Z,0.40
2023-03-27T02:45:03.362Z,0.50
2023-03-27T02:46:03.339Z,0.60
2023-03-27T02:47:03.333Z,0.50
2023-03-27T02:48:03.339Z,0.40
2023-03-27T02:49:03.288Z,0.50
2023-03-27T02:50:03.281Z,0.40
2023-03-27T02:51:03.254Z,0.50
2023-03-27T02:52:03.276Z,0.50
2023-03-27T02:53:03.376Z,0.80
2023-03-27T02:54:03.259Z,0.40
2023-03-27T02:55:03.209Z,0.50
2023-03-27T02:56:03.174Z,0.50
2023-03-27T02:57:03.268Z,0.50
2023-03-27T02:58:03.264Z,0.50
2023-03-27T02:59:03.138Z,0.50
2023-03-27T03:00:03.169Z,0.40
2023-03-27T03:01:03.164Z,0.40
2023-03-27T03:02:03.159Z,0.50
2023-03-27T03:03:03.203Z,0.40
2023-03-27T03:04:03.108Z,0.50
2023-03-27T03:05:03.096Z,0.50
2023-03-27T03:06:03.067Z,0.40
2023-03-27T03:07:03.095Z,0.40
2023-03-27T03:08:03.061Z,0.40
2023-03-27T03:09:03.023Z,0.40
2023-03-27T03:10:03.052Z,0.50
2023-03-27T03:11:02.998Z,0.50
2023-03-27T03:12:03.027Z,0.50
2023-03-27T03:13:02.974Z,0.50
2023-03-27T03:14:02.951Z,0.70
2023-03-27T03:15:02.997Z,0.40
2023-03-27T03:16:02.922Z,0.40
2023-03-27T03:17:03.043Z,0.30
2023-03-27T03:18:02.997Z,0.50
2023-03-27T03:19:02.888Z,0.50
2023-03-27T03:20:02.947Z,0.50
2023-03-27T03:21:02.895Z,0.50
2023-03-27T03:22:02.848Z,0.60
2023-03-27T03:23:02.908Z,0.80
2023-03-27T03:24:02.828Z,0.40
2023-03-27T03:25:02.886Z,0.50
2023-03-27T03:26:02.827Z,0.40
2023-03-27T03:27:02.829Z,0.60
2023-03-27T03:28:02.805Z,2.10
2023-03-27T03:29:02.839Z,0.60
2023-03-27T03:30:02.824Z,0.90
2023-03-27T03:31:02.816Z,1.10
2023-03-27T03:32:02.789Z,1.10
2023-03-27T03:33:02.809Z,0.70
2023-03-27T03:34:02.703Z,0.60
2023-03-27T03:35:02.685Z,0.70
2023-03-27T03:36:02.723Z,0.60
2023-03-27T03:37:02.706Z,0.70
2023-03-27T03:38:02.637Z,0.80
2023-03-27T03:39:02.645Z,0.50
2023-03-27T03:40:02.622Z,1.10
2023-03-27T03:41:02.602Z,0.60
2023-03-27T03:42:02.614Z,1.00
2023-03-27T03:43:02.578Z,0.80
2023-03-27T03:44:02.576Z,1.20
2023-03-27T03:45:02.574Z,0.80
2023-03-27T03:46:02.611Z,1.50
2023-03-27T03:47:02.524Z,0.80
2023-03-27T03:48:02.556Z,0.90
2023-03-27T03:49:02.511Z,0.80
2023-03-27T04:02:44.933Z,1.90
2023-03-27T04:03:44.916Z,1.30
2023-03-27T04:04:46.564Z,1.70
2023-03-27T04:05:44.816Z,3.20
2023-03-27T04:06:44.810Z,1.70
2023-03-27T04:07:44.801Z,2.30
2023-03-27T04:08:44.817Z,2.80
2023-03-27T04:09:44.766Z,2.30
2023-03-27T04:10:44.769Z,1.50
2023-03-27T04:11:44.759Z,1.30
2023-03-27T04:12:44.728Z,1.30
2023-03-27T04:13:44.702Z,1.50
2023-03-27T04:14:44.694Z,2.90
2023-03-27T04:15:44.750Z,1.90
2023-03-27T04:16:44.687Z,3.40
2023-03-27T04:17:44.777Z,3.90
2023-03-27T04:18:44.699Z,2.30
2023-03-27T04:19:44.659Z,2.40
2023-03-27T04:20:44.662Z,1.80
2023-03-27T04:21:44.622Z,2.20
2023-03-27T04:22:44.598Z,2.00
2023-03-27T04:23:44.585Z,2.10
2023-03-27T04:24:44.594Z,2.80
2023-03-27T04:25:44.648Z,3.00
2023-03-27T04:26:44.580Z,3.10
2023-03-27T04:27:44.539Z,3.00
2023-03-27T04:28:44.600Z,2.70
2023-03-27T04:29:44.573Z,2.80
2023-03-27T04:30:44.546Z,2.30
2023-03-27T04:31:44.557Z,2.40
2023-03-27T04:32:44.494Z,4.00
2023-03-27T04:33:44.483Z,3.20
2023-03-27T04:34:44.477Z,3.30
2023-03-27T04:35:44.496Z,3.90
2023-03-27T04:36:44.441Z,2.70
2023-03-27T04:37:44.423Z,3.00
2023-03-27T04:38:44.405Z,3.00
2023-03-27T04:39:44.389Z,6.20
2023-03-27T04:40:44.417Z,5.00
2023-03-27T04:41:44.371Z,4.90
2023-03-27T04:42:44.352Z,4.10
2023-03-27T04:43:44.391Z,3.40
2023-03-27T04:44:44.362Z,5.30
2023-03-27T04:45:44.324Z,4.40
2023-03-27T04:46:44.423Z,4.10
2023-03-27T04:47:44.477Z,5.40
2023-03-27T04:48:44.301Z,4.50
2023-03-27T04:49:44.261Z,5.00
2023-03-27T04:50:44.259Z,5.80
2023-03-27T04:51:44.242Z,5.00
2023-03-27T04:52:44.232Z,5.00
2023-03-27T04:53:44.226Z,8.10
2023-03-27T04:54:44.201Z,7.10
2023-03-27T04:55:44.190Z,5.80
2023-03-27T04:56:44.195Z,7.70
2023-03-27T04:57:44.167Z,6.60
2023-03-27T04:58:44.164Z,7.00
2023-03-27T04:59:44.132Z,7.40
2023-03-27T05:00:44.153Z,6.80
2023-03-27T05:01:44.128Z,7.30
2023-03-27T05:02:44.186Z,7.40
2023-03-27T05:03:44.136Z,11.40
2023-03-27T05:04:44.073Z,8.80
2023-03-27T05:05:44.069Z,7.30
2023-03-27T05:06:44.041Z,9.90
2023-03-27T05:07:44.031Z,10.40
2023-03-27T05:08:44.046Z,11.70
2023-03-27T05:09:44.046Z,5.80
2023-03-27T05:10:44.062Z,8.50
2023-03-27T05:11:43.964Z,8.70
2023-03-27T05:12:43.963Z,8.80
2023-03-27T05:13:43.964Z,8.40
2023-03-27T05:14:43.936Z,10.10
2023-03-27T05:15:43.919Z,11.30
2023-03-27T05:16:44.064Z,10.30
2023-03-27T05:17:43.905Z,6.90
2023-03-27T05:18:43.912Z,10.00
2023-03-27T05:19:43.874Z,13.50
2023-03-27T05:20:43.876Z,9.60
2023-03-27T05:21:43.896Z,12.00
2023-03-27T05:22:43.827Z,10.40
2023-03-27T05:23:43.861Z,9.60
2023-03-27T05:24:43.839Z,10.80
2023-03-27T05:25:43.797Z,9.50
2023-03-27T05:26:43.798Z,8.80
2023-03-27T05:27:43.806Z,9.90
2023-03-27T05:28:43.749Z,9.40
2023-03-27T05:29:46.797Z,9.30
2023-03-27T05:30:43.772Z,13.40
2023-03-27T05:31:43.727Z,10.10
2023-03-27T05:32:43.914Z,11.20
2023-03-27T05:33:43.680Z,12.60
2023-03-27T05:34:43.669Z,8.60
2023-03-27T05:35:43.681Z,13.40
2023-03-27T05:36:43.656Z,6.90
2023-03-27T05:37:43.629Z,7.10
2023-03-27T05:38:43.650Z,7.70
2023-03-27T05:39:43.652Z,8.50
2023-03-27T05:40:43.602Z,5.90
2023-03-27T05:41:43.587Z,8.10
2023-03-27T05:42:43.572Z,7.10
2023-03-27T05:43:43.551Z,7.60
2023-03-27T05:44:43.528Z,5.70
2023-03-27T05:45:43.546Z,7.90
2023-03-27T05:46:43.608Z,6.80
2023-03-27T05:47:43.534Z,7.50
2023-03-27T05:48:43.484Z,8.70
2023-03-27T05:49:43.495Z,7.80
2023-03-27T05:50:43.473Z,8.10
2023-03-27T05:51:47.180Z,8.00
2023-03-27T05:52:43.446Z,7.00
2023-03-27T05:53:43.442Z,8.00
2023-03-27T05:54:43.423Z,7.80
2023-03-27T05:55:43.410Z,8.80
2023-03-27T05:56:43.467Z,6.60
2023-03-27T05:57:43.384Z,8.30
2023-03-27T05:58:43.375Z,7.30
2023-03-27T05:59:43.383Z,8.50
2023-03-27T06:00:43.344Z,6.50
2023-03-27T06:01:43.352Z,11.40
2023-03-27T06:02:43.527Z,10.00
2023-03-27T06:03:43.454Z,9.10
2023-03-27T06:04:43.336Z,10.30
2023-03-27T06:05:43.315Z,9.60
2023-03-27T06:06:43.280Z,10.80
2023-03-27T06:07:43.747Z,7.40
2023-03-27T06:08:43.235Z,9.90
2023-03-27T06:09:43.223Z,8.50
2023-03-27T06:10:43.257Z,11.60
2023-03-27T06:11:43.238Z,10.90
2023-03-27T06:12:43.210Z,12.40
2023-03-27T06:13:43.175Z,8.70
2023-03-27T06:14:43.169Z,11.40
2023-03-27T06:15:43.305Z,8.60
2023-03-27T06:16:43.124Z,9.00
2023-03-27T06:17:43.140Z,9.70
2023-03-27T06:18:43.096Z,10.90
2023-03-27T06:19:43.093Z,13.10
2023-03-27T06:20:43.086Z,12.20
2023-03-27T06:21:43.091Z,10.70
2023-03-27T06:22:43.077Z,9.70
2023-03-27T06:23:43.048Z,10.90
2023-03-27T06:24:43.022Z,11.10
2023-03-27T06:25:43.026Z,14.10
2023-03-27T06:26:43.037Z,10.90
2023-03-27T06:27:43.004Z,12.20
2023-03-27T06:28:42.978Z,8.80
2023-03-27T06:29:42.971Z,7.30
2023-03-27T06:30:42.963Z,14.90
2023-03-27T06:31:42.976Z,10.20
2023-03-27T06:32:43.001Z,10.30
2023-03-27T06:33:42.935Z,11.80
2023-03-27T06:34:42.915Z,13.10
2023-03-27T06:35:42.934Z,8.90
2023-03-27T06:36:42.910Z,9.80
2023-03-27T06:37:42.883Z,13.80
2023-03-27T06:38:42.872Z,10.10
2023-03-27T06:39:42.851Z,10.20
2023-03-27T06:40:42.816Z,10.20
2023-03-27T06:41:42.814Z,12.30
2023-03-27T06:42:43.309Z,9.40
2023-03-27T06:43:42.818Z,13.50
2023-03-27T06:44:42.848Z,13.50
2023-03-27T06:45:42.772Z,9.40
2023-03-27T06:46:45.411Z,9.60
2023-03-27T06:47:53.953Z,7.60
2023-03-27T06:48:43.795Z,11.10
2023-03-27T06:49:42.710Z,12.60
2023-03-27T06:50:42.696Z,13.80
2023-03-27T06:51:42.701Z,12.30
2023-03-27T06:52:42.682Z,11.00
2023-03-27T06:53:42.659Z,9.90
2023-03-27T06:54:42.649Z,10.00
2023-03-27T06:55:42.632Z,11.50
2023-03-27T06:56:42.628Z,12.60
2023-03-27T06:57:42.624Z,7.20
2023-03-27T06:58:42.591Z,12.10
2023-03-27T06:59:42.594Z,10.90
2023-03-27T07:00:42.574Z,13.60
2023-03-27T07:01:42.633Z,9.60
2023-03-27T07:02:42.659Z,8.80
2023-03-27T07:03:42.526Z,13.00
2023-03-27T07:04:51.144Z,11.10
2023-03-27T07:05:43.613Z,14.40
2023-03-27T07:06:42.504Z,11.90
2023-03-27T07:07:42.517Z,8.20
2023-03-27T07:08:42.483Z,8.60
2023-03-27T07:09:42.433Z,13.00
2023-03-27T07:10:42.442Z,9.10
2023-03-27T07:11:42.419Z,9.00
2023-03-27T07:12:42.410Z,8.90
2023-03-27T07:13:42.572Z,10.60
2023-03-27T07:14:42.399Z,9.70
2023-03-27T07:15:42.365Z,10.40
2023-03-27T07:16:42.432Z,9.50
2023-03-27T07:17:48.751Z,9.50
2023-03-27T07:18:43.333Z,11.40
2023-03-27T07:19:42.311Z,12.40
2023-03-27T07:20:42.299Z,9.00
2023-03-27T07:21:42.300Z,10.50
2023-03-27T07:22:42.316Z,9.00
2023-03-27T07:23:42.266Z,11.90
2023-03-27T07:24:42.266Z,10.50
2023-03-27T07:25:42.241Z,10.60
2023-03-27T07:26:42.227Z,13.80
2023-03-27T07:27:42.198Z,9.20
2023-03-27T07:28:42.224Z,9.30
2023-03-27T07:29:42.188Z,8.20
2023-03-27T07:30:42.188Z,8.90
2023-03-27T07:31:55.851Z,13.10
2023-03-27T07:32:43.341Z,11.80
2023-03-27T07:33:42.197Z,11.50
2023-03-27T07:34:42.120Z,7.00
2023-03-27T07:35:42.134Z,7.70
2023-03-27T07:36:42.107Z,9.00
2023-03-27T07:37:42.096Z,8.70
2023-03-27T07:38:42.117Z,8.70
2023-03-27T07:39:42.058Z,11.30
2023-03-27T07:40:42.063Z,11.90
2023-03-27T07:41:42.034Z,10.20
2023-03-27T07:42:42.034Z,10.20
2023-03-27T07:43:42.269Z,8.40
2023-03-27T07:44:41.999Z,9.00
2023-03-27T07:45:42.137Z,7.40
2023-03-27T07:46:41.964Z,6.80
2023-03-27T07:47:41.968Z,7.60
2023-03-27T07:48:41.964Z,12.20
2023-03-27T07:49:41.952Z,9.30
2023-03-27T07:50:41.919Z,11.30
2023-03-27T07:51:41.917Z,8.80
2023-03-27T07:52:41.901Z,10.70
2023-03-27T07:53:41.892Z,8.10
2023-03-27T07:54:41.861Z,7.80
2023-03-27T07:55:41.862Z,7.10
2023-03-27T07:56:41.903Z,6.70
2023-03-27T07:57:57.210Z,8.90
2023-03-27T07:58:42.841Z,9.60
2023-03-27T07:59:41.778Z,9.40
2023-03-27T08:00:41.799Z,7.10
2023-03-27T08:01:41.781Z,6.90
2023-03-27T08:02:41.823Z,8.00
2023-03-27T08:03:41.932Z,7.40
2023-03-27T08:04:41.923Z,10.60
2023-03-27T08:05:41.751Z,8.10
2023-03-27T08:06:41.714Z,9.20
2023-03-27T08:07:41.715Z,7.20
2023-03-27T08:08:41.726Z,5.50
2023-03-27T08:09:41.673Z,6.20
2023-03-27T08:10:41.687Z,5.70
2023-03-27T08:11:41.657Z,5.80
2023-03-27T08:12:41.861Z,5.00
2023-03-27T08:13:41.651Z,5.50
2023-03-27T08:14:41.612Z,7.00
2023-03-27T08:15:41.625Z,4.30
2023-03-27T08:16:41.603Z,6.00
2023-03-27T08:17:41.652Z,4.50
2023-03-27T08:18:41.594Z,5.20
2023-03-27T08:19:41.548Z,5.20
2023-03-27T08:20:41.544Z,5.90
2023-03-27T08:21:41.554Z,8.90
2023-03-27T08:22:41.529Z,4.80
2023-03-27T08:23:41.512Z,5.40
2023-03-27T08:24:41.486Z,6.00
2023-03-27T08:25:41.458Z,7.90
2023-03-27T08:26:41.468Z,5.50
2023-03-27T08:27:41.467Z,6.30
2023-03-27T08:28:41.440Z,4.10
2023-03-27T08:29:41.434Z,7.30
2023-03-27T08:30:41.432Z,5.60
2023-03-27T08:31:41.406Z,4.50
2023-03-27T08:32:41.488Z,4.70
2023-03-27T08:33:41.368Z,4.10
2023-03-27T08:34:41.355Z,6.30
2023-03-27T08:35:41.370Z,4.70
2023-03-27T08:36:41.317Z,5.10
2023-03-27T08:37:41.357Z,6.60
2023-03-27T08:38:41.318Z,3.90
2023-03-27T08:39:41.280Z,3.80
2023-03-27T08:40:41.284Z,6.70
2023-03-27T08:41:41.273Z,4.30
2023-03-27T08:42:41.267Z,3.60
2023-03-27T08:43:41.222Z,5.30
2023-03-27T08:44:41.360Z,6.90
2023-03-27T08:45:41.469Z,4.20
2023-03-27T08:46:41.248Z,4.90
2023-03-27T08:47:41.218Z,4.00
2023-03-27T08:48:41.169Z,5.90
2023-03-27T08:49:41.169Z,7.20
2023-03-27T08:50:41.144Z,4.50
2023-03-27T08:51:41.122Z,4.90
2023-03-27T08:52:41.157Z,7.10
2023-03-27T08:53:41.140Z,4.10
2023-03-27T08:54:41.112Z,4.00
2023-03-27T08:55:41.089Z,4.90
2023-03-27T08:56:41.132Z,3.90
2023-03-27T08:57:41.116Z,2.70
2023-03-27T08:58:41.063Z,2.00
2023-03-27T08:59:41.046Z,2.90
2023-03-27T09:00:41.036Z,2.70
2023-03-27T09:01:41.115Z,2.00
2023-03-27T09:02:41.076Z,3.90
2023-03-27T09:03:41.107Z,4.10
2023-03-27T09:04:40.989Z,3.30
2023-03-27T09:05:40.947Z,3.80
2023-03-27T09:06:40.936Z,3.00
2023-03-27T09:07:40.914Z,3.70
2023-03-27T09:08:40.959Z,2.90
2023-03-27T09:09:40.924Z,2.50
2023-03-27T09:10:40.890Z,1.90
2023-03-27T09:11:40.857Z,2.40
2023-03-27T09:12:43.516Z,3.40
2023-03-27T09:13:40.860Z,3.10
2023-03-27T09:14:40.844Z,3.80
2023-03-27T09:15:40.858Z,2.50
2023-03-27T09:16:40.840Z,2.50
2023-03-27T09:17:40.846Z,2.60
2023-03-27T09:18:40.807Z,2.60
2023-03-27T09:19:40.804Z,6.70
2023-03-27T09:20:40.788Z,2.00
2023-03-27T09:21:40.749Z,3.10
2023-03-27T09:22:40.785Z,2.80
2023-03-27T09:23:40.721Z,3.20
2023-03-27T09:24:40.734Z,4.20
2023-03-27T09:25:40.691Z,3.20
2023-03-27T09:26:40.677Z,3.50
2023-03-27T09:27:40.664Z,2.50
2023-03-27T09:28:40.654Z,2.30
2023-03-27T09:29:40.852Z,4.00
2023-03-27T09:30:40.610Z,4.60
2023-03-27T09:31:40.619Z,2.60
2023-03-27T09:32:40.652Z,3.60
2023-03-27T09:33:40.625Z,3.00
2023-03-27T09:34:40.597Z,3.30
2023-03-27T09:35:40.620Z,2.60
2023-03-27T09:36:40.555Z,4.80
2023-03-27T09:37:40.547Z,3.10
2023-03-27T09:38:40.518Z,3.10
2023-03-27T09:39:40.522Z,3.90
2023-03-27T09:40:40.512Z,3.00
2023-03-27T09:41:40.472Z,4.40
2023-03-27T09:42:40.471Z,3.40
2023-03-27T09:43:40.498Z,3.20
2023-03-27T09:44:40.483Z,3.90
2023-03-27T09:45:40.434Z,7.00
2023-03-27T09:46:40.559Z,2.00
2023-03-27T10:03:09.058Z,4.80
2023-03-27T10:04:09.005Z,6.90
2023-03-27T10:05:08.974Z,3.70
2023-03-27T10:06:08.956Z,6.00
2023-03-27T10:07:08.932Z,3.30
2023-03-27T10:08:08.920Z,4.90
2023-03-27T10:09:08.910Z,4.30
2023-03-27T10:10:08.935Z,2.40
2023-03-27T10:11:08.892Z,3.50
2023-03-27T10:12:08.899Z,2.50
2023-03-27T10:13:08.861Z,6.30
2023-03-27T10:14:08.847Z,2.80
2023-03-27T10:15:08.860Z,3.50
2023-03-27T10:16:08.857Z,3.80
2023-03-27T10:17:08.847Z,2.70
2023-03-27T10:18:08.868Z,3.90
2023-03-27T10:19:08.766Z,4.50
2023-03-27T10:20:08.807Z,4.30
2023-03-27T10:21:08.758Z,4.20
2023-03-27T10:22:08.748Z,4.60
2023-03-27T10:23:10.082Z,4.20
2023-03-27T10:24:08.715Z,3.10
2023-03-27T10:25:08.705Z,4.50
2023-03-27T10:26:08.700Z,2.50
2023-03-27T10:27:08.687Z,2.20
2023-03-27T10:28:08.669Z,3.80
2023-03-27T10:29:08.653Z,2.40
2023-03-27T10:30:08.696Z,2.90
2023-03-27T10:31:08.627Z,3.30
2023-03-27T10:32:08.705Z,4.00
2023-03-27T10:33:08.666Z,3.40
2023-03-27T10:34:08.610Z,2.60
2023-03-27T10:35:08.594Z,2.80
2023-03-27T10:36:08.632Z,4.00
2023-03-27T10:37:08.581Z,2.70
2023-03-27T10:38:08.534Z,2.30
2023-03-27T10:39:08.534Z,2.70
2023-03-27T10:40:08.513Z,3.20
2023-03-27T10:41:08.505Z,2.60
2023-03-27T10:42:08.506Z,3.00
2023-03-27T10:43:09.104Z,2.80
2023-03-27T10:44:08.455Z,3.90
2023-03-27T10:45:08.448Z,2.90
2023-03-27T10:46:08.519Z,4.30
2023-03-27T10:47:08.460Z,5.30
2023-03-27T10:48:08.452Z,3.50
2023-03-27T10:49:08.395Z,4.40
2023-03-27T10:50:08.384Z,3.50
2023-03-27T10:51:08.386Z,2.20
2023-03-27T10:52:08.398Z,2.70
2023-03-27T10:53:08.454Z,5.50
2023-03-27T10:54:08.543Z,3.00
2023-03-27T10:55:08.314Z,3.90
2023-03-27T10:56:08.383Z,1.80
2023-03-27T10:57:08.369Z,5.10
2023-03-27T10:58:08.297Z,3.10
2023-03-27T10:59:08.259Z,4.10
2023-03-27T11:00:08.257Z,3.30
2023-03-27T11:01:08.376Z,2.60
2023-03-27T11:02:09.486Z,2.90
2023-03-27T11:03:08.262Z,2.50
2023-03-27T11:04:08.263Z,2.90
2023-03-27T11:05:08.280Z,3.30
2023-03-27T11:06:08.211Z,3.20
2023-03-27T11:07:08.156Z,1.80
2023-03-27T11:08:08.210Z,2.60
2023-03-27T11:09:08.149Z,2.40
2023-03-27T11:10:08.123Z,2.10
2023-03-27T11:11:08.130Z,3.00
2023-03-27T11:12:08.100Z,2.40
2023-03-27T11:13:08.098Z,3.40
2023-03-27T11:14:08.102Z,3.30
2023-03-27T11:15:08.067Z,2.60
2023-03-27T11:16:08.077Z,4.60
2023-03-27T11:17:08.106Z,5.30
2023-03-27T11:18:08.121Z,3.00
2023-03-27T11:19:08.028Z,3.80
2023-03-27T11:20:08.023Z,4.70
2023-03-27T11:21:07.997Z,5.80
2023-03-27T11:22:07.962Z,4.30
2023-03-27T11:23:07.967Z,4.30
2023-03-27T11:24:07.955Z,2.70
2023-03-27T11:25:07.938Z,3.60
2023-03-27T11:26:07.945Z,2.80
2023-03-27T11:27:07.892Z,3.90
2023-03-27T11:28:07.906Z,4.60
2023-03-27T11:29:07.878Z,4.60
2023-03-27T11:30:07.889Z,3.60
2023-03-27T11:31:13.082Z,2.00
2023-03-27T11:32:08.857Z,3.00
2023-03-27T11:33:07.859Z,4.20
2023-03-27T11:34:07.837Z,3.10
2023-03-27T11:35:07.820Z,3.10
2023-03-27T11:36:07.872Z,1.80
2023-03-27T11:37:07.815Z,5.60
2023-03-27T11:38:07.802Z,3.40
2023-03-27T11:39:07.765Z,2.60
2023-03-27T11:40:07.757Z,3.40
2023-03-27T11:41:07.744Z,4.20
2023-03-27T11:42:07.736Z,2.80
2023-03-27T11:43:07.699Z,4.40
2023-03-27T11:44:07.711Z,2.60
2023-03-27T11:45:07.670Z,5.40
2023-03-27T11:46:07.722Z,4.60
2023-03-27T11:47:07.656Z,3.40
2023-03-27T11:48:10.678Z,2.80
2023-03-27T11:49:07.640Z,5.40
2023-03-27T11:50:07.631Z,2.40
2023-03-27T11:51:07.606Z,4.20
2023-03-27T11:52:07.579Z,4.20
2023-03-27T11:53:07.576Z,4.20
2023-03-27T11:54:07.590Z,4.20
2023-03-27T11:55:07.583Z,1.80
2023-03-27T11:56:07.580Z,3.10
2023-03-27T11:57:07.687Z,2.30
2023-03-27T11:58:07.516Z,2.00
2023-03-27T11:59:07.519Z,2.40
2023-03-27T12:00:07.495Z,2.90
2023-03-27T12:01:07.474Z,3.40
2023-03-27T12:02:07.455Z,4.80
2023-03-27T12:03:07.536Z,5.40
2023-03-27T12:04:07.526Z,2.50
2023-03-27T12:05:07.430Z,2.80
2023-03-27T12:06:07.436Z,4.00
2023-03-27T12:07:09.806Z,1.60
2023-03-27T12:08:07.371Z,2.90
2023-03-27T12:09:07.369Z,2.90
2023-03-27T12:10:07.380Z,3.00
2023-03-27T12:11:07.327Z,2.20
2023-03-27T12:12:07.338Z,4.60
2023-03-27T12:13:07.294Z,3.00
2023-03-27T12:14:17.551Z,3.10
2023-03-27T12:15:08.300Z,3.80
2023-03-27T12:16:07.289Z,3.40
2023-03-27T12:17:07.262Z,3.40
2023-03-27T12:18:07.283Z,1.80
2023-03-27T12:19:17.267Z,3.40
2023-03-27T12:20:08.216Z,3.60
2023-03-27T12:21:07.226Z,2.00
2023-03-27T12:22:14.268Z,3.30
2023-03-27T12:23:08.299Z,2.80
2023-03-27T12:24:07.186Z,2.60
2023-03-27T12:25:07.201Z,1.10
2023-03-27T12:26:07.138Z,1.50
2023-03-27T12:27:07.129Z,3.20
2023-03-27T12:28:07.120Z,2.40
2023-03-27T12:29:22.635Z,3.30
2023-03-27T12:30:08.153Z,2.30
2023-03-27T12:31:07.093Z,1.10
2023-03-27T12:32:07.120Z,1.10
2023-03-27T12:33:07.131Z,1.10
2023-03-27T12:34:07.041Z,1.80
2023-03-27T12:35:07.032Z,2.30
2023-03-27T12:36:07.080Z,2.30
2023-03-27T12:37:07.000Z,1.60
2023-03-27T12:38:07.022Z,2.00
2023-03-27T12:39:06.975Z,2.10
2023-03-27T12:40:06.996Z,2.50
2023-03-27T12:41:06.935Z,1.90
2023-03-27T12:42:06.919Z,1.60
2023-03-27T12:43:06.929Z,1.90
2023-03-27T12:44:06.914Z,1.90
2023-03-27T12:45:06.896Z,1.60
2023-03-27T12:46:07.148Z,1.80
2023-03-27T12:47:09.035Z,4.00
2023-03-27T12:48:06.890Z,2.50
2023-03-27T12:49:06.834Z,2.00
2023-03-27T12:50:06.905Z,2.30
2023-03-27T12:51:06.819Z,2.60
2023-03-27T12:52:06.801Z,2.20
2023-03-27T12:53:06.804Z,2.90
2023-03-27T12:54:06.791Z,2.80
2023-03-27T12:55:06.770Z,1.80
2023-03-27T12:56:06.756Z,2.20
2023-03-27T12:57:06.855Z,4.20
2023-03-27T12:58:06.789Z,2.30
2023-03-27T12:59:07.410Z,3.00
2023-03-27T13:00:06.771Z,3.20
2023-03-27T13:01:06.702Z,1.60
2023-03-27T13:02:06.863Z,3.50
2023-03-27T13:03:06.720Z,3.60
2023-03-27T13:04:06.700Z,4.70
2023-03-27T13:05:16.455Z,2.70
2023-03-27T13:06:07.608Z,4.60
2023-03-27T13:07:06.642Z,3.00
2023-03-27T13:08:06.589Z,3.10
2023-03-27T13:09:06.598Z,3.90
2023-03-27T13:10:06.672Z,3.10
2023-03-27T13:11:06.569Z,2.50
2023-03-27T13:12:06.526Z,2.40
2023-03-27T13:13:06.527Z,2.80
2023-03-27T13:14:06.514Z,2.50
2023-03-27T13:15:06.513Z,2.40
2023-03-27T13:16:06.499Z,2.50
2023-03-27T13:17:06.506Z,1.90
2023-03-27T13:18:06.520Z,1.80
2023-03-27T13:19:06.438Z,2.50
2023-03-27T13:20:06.429Z,2.10
2023-03-27T13:21:06.452Z,3.10
2023-03-27T13:22:06.407Z,1.90
2023-03-27T13:23:06.398Z,3.70
2023-03-27T13:24:08.600Z,3.60
2023-03-27T13:25:06.373Z,2.20
2023-03-27T13:26:06.364Z,3.10
2023-03-27T13:27:06.344Z,3.00
2023-03-27T13:28:06.322Z,2.70
2023-03-27T13:29:06.350Z,2.30
2023-03-27T13:30:06.326Z,3.60
2023-03-27T13:31:06.352Z,2.20
2023-03-27T13:32:06.272Z,2.20
2023-03-27T13:33:06.316Z,2.70
2023-03-27T13:34:06.300Z,2.90
2023-03-27T13:35:06.245Z,2.30
2023-03-27T13:36:06.310Z,2.80
2023-03-27T13:37:06.883Z,2.80
2023-03-27T13:38:06.493Z,1.90
2023-03-27T13:39:06.193Z,3.40
2023-03-27T13:40:06.183Z,3.70
2023-03-27T13:41:06.172Z,4.60
2023-03-27T13:42:06.160Z,2.20
2023-03-27T13:43:06.138Z,2.30